Arkadiy Minchenya — UBUU — position and weather

sailwx.info

Track history (hours):
 
Tides and Currents Weather Stations Pressure Air Temp Water Temp Dewpoint Dewpoint Depression Visibility Wind Speed Wind Dir Waves Ship Positions

Arkadiy Minchenya

Last reported at 2018-May-27 14:42 UTC. Time now 2018-Jun-24 18:56 UTC.
Position N 59°50' E 030°32'.
Warning: this ship's position is 28 days out of date.

Length 119 m; draft 2.6 m.

Type: Cargo ship. MMSI: 273428020.

Date/timePositionNaut miles runAvg speedWind from/ knotsBaromVisibWave heightAir tempDewpointWater temp
2018-May-27 14:42N 59°50' E 030°32'1 4.5
2018-May-27 14:30N 59°51' E 030°31'2 3.4
2018-May-27 14:00N 59°52' E 030°29'0 0.5
2018-May-27 13:28N 59°52' E 030°29'0 0.0
2018-May-27 04:34N 59°52' E 030°29'0 1.4
2018-May-27 04:19N 59°52' E 030°29'  
2018-May-24 19:29N 59°50' E 030°32'2 3.5
2018-May-24 18:59N 59°51' E 030°30'1 1.6
2018-May-24 18:28N 59°52' E 030°29'0 0.0
2018-May-24 17:55N 59°52' E 030°29'0 0.0
2018-May-24 17:28N 59°52' E 030°29'0 0.0
2018-May-24 17:00N 59°52' E 030°29'0 0.0
2018-May-24 15:38N 59°52' E 030°29'0 0.0
2018-May-24 15:25N 59°52' E 030°29'0 0.0
2018-May-24 14:59N 59°52' E 030°29'  
2018-May-22 01:19N 59°48' E 030°37'3 4.7
2018-May-22 00:44N 59°50' E 030°34'1 3.0
2018-May-22 00:30N 59°50' E 030°32'2 4.1
2018-May-22 00:00N 59°51' E 030°30'1 1.7
2018-May-21 23:30N 59°52' E 030°29'0 0.0
2018-May-21 22:26N 59°52' E 030°29'0 0.0
2018-May-21 22:00N 59°52' E 030°29'0 0.0
2018-May-21 21:00N 59°52' E 030°29'0 0.0
2018-May-21 19:14N 59°52' E 030°29'0 0.0
2018-May-21 18:42N 59°52' E 030°29'0 0.1
2018-May-21 12:58N 59°52' E 030°29'  
2018-May-19 07:44N 59°50' E 030°31'2 0.2
2018-May-18 20:48N 59°52' E 030°29'0 0.3
2018-May-18 20:30N 59°52' E 030°29'0 0.0
2018-May-18 18:51N 59°52' E 030°29'0 0.0
2018-May-18 18:29N 59°52' E 030°29'0 0.0
2018-May-18 17:48N 59°52' E 030°29'0 0.0
2018-May-18 17:29N 59°52' E 030°29'0 0.0
2018-May-18 17:00N 59°52' E 030°29'0 0.0
2018-May-18 16:30N 59°52' E 030°29'0 0.0
2018-May-18 15:58N 59°52' E 030°29'0 0.0
2018-May-18 15:30N 59°52' E 030°29'0 0.0
2018-May-18 15:00N 59°52' E 030°29'0 0.0
2018-May-18 14:23N 59°52' E 030°29'0 0.0
2018-May-18 13:54N 59°52' E 030°29'0 1.2
2018-May-18 13:30N 59°52' E 030°29'  
Track history (hours):
 
Tides and Currents Weather Stations Pressure Air Temp Water Temp Dewpoint Dewpoint Depression Visibility Wind Speed Wind Dir Waves Ship Positions

Arkadiy Minchenya

Last reported at 2018-May-27 14:42 UTC. Time now 2018-Jun-24 18:56 UTC.
Position N 59°50' E 030°32'.
Warning: this ship's position is 28 days out of date.

Length 119 m; draft 2.6 m.

Type: Cargo ship. MMSI: 273428020.

Date/timePositionNaut miles runAvg speedWind from/ knotsBaromVisibWave heightAir tempDewpointWater temp
2018-May-27 14:42N 59°50' E 030°32'1 4.5
2018-May-27 14:30N 59°51' E 030°31'2 3.4
2018-May-27 14:00N 59°52' E 030°29'0 0.5
2018-May-27 13:28N 59°52' E 030°29'0 0.0
2018-May-27 04:34N 59°52' E 030°29'0 1.4
2018-May-27 04:19N 59°52' E 030°29'  
2018-May-24 19:29N 59°50' E 030°32'2 3.5
2018-May-24 18:59N 59°51' E 030°30'1 1.6
2018-May-24 18:28N 59°52' E 030°29'0 0.0
2018-May-24 17:55N 59°52' E 030°29'0 0.0
2018-May-24 17:28N 59°52' E 030°29'0 0.0
2018-May-24 17:00N 59°52' E 030°29'0 0.0
2018-May-24 15:38N 59°52' E 030°29'0 0.0
2018-May-24 15:25N 59°52' E 030°29'0 0.0
2018-May-24 14:59N 59°52' E 030°29'  
2018-May-22 01:19N 59°48' E 030°37'3 4.7
2018-May-22 00:44N 59°50' E 030°34'1 3.0
2018-May-22 00:30N 59°50' E 030°32'2 4.1
2018-May-22 00:00N 59°51' E 030°30'1 1.7
2018-May-21 23:30N 59°52' E 030°29'0 0.0
2018-May-21 22:26N 59°52' E 030°29'0 0.0
2018-May-21 22:00N 59°52' E 030°29'0 0.0
2018-May-21 21:00N 59°52' E 030°29'0 0.0
2018-May-21 19:14N 59°52' E 030°29'0 0.0
2018-May-21 18:42N 59°52' E 030°29'0 0.1
2018-May-21 12:58N 59°52' E 030°29'  
2018-May-19 07:44N 59°50' E 030°31'2 0.2
2018-May-18 20:48N 59°52' E 030°29'0 0.3
2018-May-18 20:30N 59°52' E 030°29'0 0.0
2018-May-18 18:51N 59°52' E 030°29'0 0.0
2018-May-18 18:29N 59°52' E 030°29'0 0.0
2018-May-18 17:48N 59°52' E 030°29'0 0.0
2018-May-18 17:29N 59°52' E 030°29'0 0.0
2018-May-18 17:00N 59°52' E 030°29'0 0.0
2018-May-18 16:30N 59°52' E 030°29'0 0.0
2018-May-18 15:58N 59°52' E 030°29'0 0.0
2018-May-18 15:30N 59°52' E 030°29'0 0.0
2018-May-18 15:00N 59°52' E 030°29'0 0.0
2018-May-18 14:23N 59°52' E 030°29'0 0.0
2018-May-18 13:54N 59°52' E 030°29'0 1.2
2018-May-18 13:30N 59°52' E 030°29'  

Dump ship's entire track history